Time;durP1;ratioP1;P1;durP2;ratioP2;P2;SDS_P1;SDS_P2;PMS_P1;PMS_P2;Temp;Humidity;BMP_temperature;BMP_pressure;BME280_temperature;BME280_humidity;BME280_pressure;Samples;Min_cycle;Max_cycle;Signal;HPM_P1;HPM_P2
2023/06/29 00:00:50;;;;;;;0.10;0.10;;;;;;;;;;5092913;28;20040;-70
2023/06/29 00:03:17;;;;;;;0.30;0.30;;;;;;;;;;5093274;28;20047;-69
2023/06/29 00:05:43;;;;;;;0.20;0.20;;;;;;;;;;5093095;28;20035;-69
2023/06/29 00:08:08;;;;;;;0.20;0.20;;;;;;;;;;5074873;28;20036;-69
2023/06/29 00:10:34;;;;;;;0.20;0.20;;;;;;;;;;5091967;28;20383;-70
2023/06/29 00:12:59;;;;;;;0.20;0.20;;;;;;;;;;5092405;28;20374;-70
2023/06/29 00:15:25;;;;;;;0.20;0.20;;;;;;;;;;5092631;28;20024;-69
2023/06/29 00:17:50;;;;;;;0.40;0.40;;;;;;;;;;5073821;28;20101;-69
2023/06/29 00:20:15;;;;;;;0.20;0.20;;;;;;;;;;5092477;28;20120;-70
2023/06/29 00:22:47;;;;;;;0.20;0.20;;;;;;;;;;5089936;28;20027;-70
2023/06/29 00:25:13;;;;;;;0.20;0.20;;;;;;;;;;5074389;28;20493;-70
2023/06/29 00:27:39;;;;;;;4.95;4.22;;;;;;;;;;5092580;28;20119;-70
2023/06/29 00:30:04;;;;;;;30.75;10.05;;;;;;;;;;5092778;28;20110;-70
2023/06/29 00:32:30;;;;;;;1.00;1.00;;;;;;;;;;5092686;28;20043;-70
2023/06/29 00:34:55;;;;;;;4.13;3.78;;;;;;;;;;5092629;28;20035;-70
2023/06/29 00:37:21;;;;;;;0.20;0.20;;;;;;;;;;5074368;28;20115;-70
2023/06/29 00:39:46;;;;;;;0.40;0.40;;;;;;;;;;5073560;28;20072;-71
2023/06/29 00:42:12;;;;;;;1.08;1.05;;;;;;;;;;5074511;28;20037;-70
2023/06/29 00:44:37;;;;;;;0.20;0.20;;;;;;;;;;5074226;28;20040;-70
2023/06/29 00:47:03;;;;;;;0.20;0.20;;;;;;;;;;5074074;28;20067;-70
2023/06/29 00:49:28;;;;;;;0.20;0.20;;;;;;;;;;5074137;28;20024;-70
2023/06/29 00:51:55;;;;;;;0.20;0.20;;;;;;;;;;5073980;28;20032;-70
2023/06/29 00:54:21;;;;;;;0.20;0.20;;;;;;;;;;5090784;28;20127;-71
2023/06/29 00:56:48;;;;;;;0.20;0.20;;;;;;;;;;5092282;28;20052;-70
2023/06/29 00:59:14;;;;;;;0.25;0.25;;;;;;;;;;5074180;28;20074;-69
2023/06/29 01:01:40;;;;;;;0.63;0.63;;;;;;;;;;5092274;28;20076;-70
2023/06/29 01:04:08;;;;;;;0.20;0.20;;;;;;;;;;5092232;28;20032;-70
2023/06/29 01:06:50;;;;;;;2.15;2.05;;;;;;;;;;5074012;28;20127;-70
2023/06/29 01:09:17;;;;;;;0.20;0.20;;;;;;;;;;5074123;28;20383;-70
2023/06/29 01:11:43;;;;;;;0.73;0.73;;;;;;;;;;5094076;28;20024;-69
2023/06/29 01:14:10;;;;;;;0.40;0.40;;;;;;;;;;5076569;28;20483;-70
2023/06/29 01:16:36;;;;;;;6.85;2.17;;;;;;;;;;5060626;28;20067;-70
2023/06/29 01:19:06;;;;;;;0.20;0.20;;;;;;;;;;5077292;28;20502;-71
2023/06/29 01:21:36;;;;;;;0.30;0.30;;;;;;;;;;5095446;28;20417;-71
2023/06/29 01:24:02;;;;;;;0.22;0.22;;;;;;;;;;5077410;28;20062;-71
2023/06/29 01:26:28;;;;;;;0.20;0.20;;;;;;;;;;5077397;28;20515;-71
2023/06/29 01:28:56;;;;;;;0.20;0.20;;;;;;;;;;5077234;28;20039;-71
2023/06/29 01:31:26;;;;;;;0.20;0.20;;;;;;;;;;5095287;28;20032;-71
2023/06/29 01:33:53;;;;;;;0.20;0.20;;;;;;;;;;5095377;28;20028;-71
2023/06/29 01:36:18;;;;;;;8.43;7.63;;;;;;;;;;5076907;28;20043;-72
2023/06/29 01:38:47;;;;;;;0.40;0.40;;;;;;;;;;5076371;28;20036;-72
2023/06/29 01:41:15;;;;;;;0.30;0.30;;;;;;;;;;5076939;28;20024;-72
2023/06/29 01:43:40;;;;;;;0.20;0.20;;;;;;;;;;5077105;28;20085;-70
2023/06/29 01:46:06;;;;;;;0.20;0.20;;;;;;;;;;5077055;28;20032;-70
2023/06/29 01:48:32;;;;;;;0.20;0.20;;;;;;;;;;5076843;28;20039;-70
2023/06/29 01:50:57;;;;;;;0.20;0.20;;;;;;;;;;5076801;28;20036;-70
2023/06/29 01:53:23;;;;;;;0.20;0.20;;;;;;;;;;5095028;28;20028;-71
2023/06/29 01:55:48;;;;;;;0.28;0.28;;;;;;;;;;5094992;28;20032;-70
2023/06/29 01:58:14;;;;;;;2.15;1.85;;;;;;;;;;5076023;28;20036;-70
2023/06/29 02:00:39;;;;;;;0.20;0.20;;;;;;;;;;5075982;28;20032;-70
2023/06/29 02:03:05;;;;;;;0.20;0.20;;;;;;;;;;5094743;28;20032;-70
2023/06/29 02:05:31;;;;;;;0.20;0.20;;;;;;;;;;5094694;28;20483;-71
2023/06/29 02:07:59;;;;;;;0.20;0.20;;;;;;;;;;5076481;28;20031;-70
2023/06/29 02:10:25;;;;;;;0.20;0.20;;;;;;;;;;5076685;28;20374;-71
2023/06/29 02:12:50;;;;;;;0.20;0.20;;;;;;;;;;5094630;28;20032;-70
2023/06/29 02:15:15;;;;;;;0.20;0.20;;;;;;;;;;5076344;28;20043;-70
2023/06/29 02:17:41;;;;;;;0.20;0.20;;;;;;;;;;5094423;28;20031;-70
2023/06/29 02:20:09;;;;;;;0.20;0.20;;;;;;;;;;5076246;28;20039;-70
2023/06/29 02:22:36;;;;;;;0.17;0.17;;;;;;;;;;5074585;28;20402;-71
2023/06/29 02:25:02;;;;;;;0.57;0.57;;;;;;;;;;5075482;28;20039;-70
2023/06/29 02:27:27;;;;;;;0.20;0.20;;;;;;;;;;5059750;28;20039;-70
2023/06/29 02:29:53;;;;;;;0.20;0.20;;;;;;;;;;5093020;28;20419;-70
2023/06/29 02:32:22;;;;;;;0.20;0.20;;;;;;;;;;5076252;28;20539;-70
2023/06/29 02:34:47;;;;;;;0.20;0.20;;;;;;;;;;5094068;28;20036;-70
2023/06/29 02:37:16;;;;;;;0.32;0.32;;;;;;;;;;5075632;28;20024;-70
2023/06/29 02:39:41;;;;;;;0.20;0.20;;;;;;;;;;5074850;28;20031;-70
2023/06/29 02:42:07;;;;;;;0.25;0.25;;;;;;;;;;5075932;28;20039;-70
2023/06/29 02:44:32;;;;;;;0.20;0.20;;;;;;;;;;5075109;28;20085;-70
2023/06/29 02:46:58;;;;;;;0.15;0.15;;;;;;;;;;5093735;28;20403;-71
2023/06/29 02:49:24;;;;;;;0.20;0.20;;;;;;;;;;5075276;28;20020;-71
2023/06/29 02:51:50;;;;;;;0.20;0.20;;;;;;;;;;5076071;28;20035;-70
2023/06/29 02:54:16;;;;;;;0.22;0.22;;;;;;;;;;5075909;28;20032;-70
2023/06/29 02:56:42;;;;;;;0.20;0.20;;;;;;;;;;5076366;28;20043;-70
2023/06/29 02:59:08;;;;;;;1.58;1.48;;;;;;;;;;5093966;28;20036;-70
2023/06/29 03:01:33;;;;;;;0.20;0.20;;;;;;;;;;5093853;28;20028;-70
2023/06/29 03:03:59;;;;;;;0.20;0.20;;;;;;;;;;5069656;28;20028;-71
2023/06/29 03:06:25;;;;;;;0.20;0.20;;;;;;;;;;5055020;28;20101;-70
2023/06/29 03:08:51;;;;;;;0.20;0.20;;;;;;;;;;5088314;28;20072;-70
2023/06/29 03:11:16;;;;;;;0.20;0.20;;;;;;;;;;5071287;28;20123;-70
2023/06/29 03:13:41;;;;;;;0.20;0.20;;;;;;;;;;5089422;28;20077;-71
2023/06/29 03:16:09;;;;;;;0.20;0.20;;;;;;;;;;5088578;28;20175;-71
2023/06/29 03:18:34;;;;;;;0.20;0.20;;;;;;;;;;5071037;28;20475;-70
2023/06/29 03:21:01;;;;;;;0.40;0.40;;;;;;;;;;5087783;28;20035;-71
2023/06/29 03:23:27;;;;;;;0.20;0.20;;;;;;;;;;5089451;28;20087;-70
2023/06/29 03:25:52;;;;;;;13.45;5.00;;;;;;;;;;5089600;28;20064;-71
2023/06/29 03:28:18;;;;;;;0.30;0.30;;;;;;;;;;5089140;28;20044;-71
2023/06/29 03:30:43;;;;;;;0.20;0.20;;;;;;;;;;5089274;28;20032;-70
2023/06/29 03:33:08;;;;;;;0.20;0.20;;;;;;;;;;5089229;28;20034;-71
2023/06/29 03:35:34;;;;;;;1.27;1.27;;;;;;;;;;5088836;28;20119;-70
2023/06/29 03:37:59;;;;;;;0.20;0.20;;;;;;;;;;5087976;28;20032;-71
2023/06/29 03:40:24;;;;;;;0.28;0.28;;;;;;;;;;5088873;28;20052;-72
2023/06/29 03:42:50;;;;;;;0.20;0.20;;;;;;;;;;5089011;28;20063;-71
2023/06/29 03:45:15;;;;;;;0.20;0.20;;;;;;;;;;5090309;28;20032;-72
2023/06/29 03:47:41;;;;;;;0.20;0.20;;;;;;;;;;5089957;28;20039;-72
2023/06/29 03:50:06;;;;;;;0.40;0.40;;;;;;;;;;5089105;28;20032;-71
2023/06/29 03:52:31;;;;;;;0.20;0.20;;;;;;;;;;5070810;28;20032;-73
2023/06/29 03:54:57;;;;;;;0.20;0.20;;;;;;;;;;5089207;28;20240;-71
2023/06/29 03:57:22;;;;;;;0.20;0.20;;;;;;;;;;5088145;28;20042;-71
2023/06/29 03:59:48;;;;;;;0.20;0.20;;;;;;;;;;5070520;28;20051;-72
2023/06/29 04:02:13;;;;;;;0.10;0.10;;;;;;;;;;5087484;28;20494;-71
2023/06/29 04:04:38;;;;;;;0.22;0.22;;;;;;;;;;5088695;28;20119;-70
2023/06/29 04:07:04;;;;;;;0.90;0.90;;;;;;;;;;5070708;28;20036;-70
2023/06/29 04:09:29;;;;;;;0.20;0.20;;;;;;;;;;5088649;28;20031;-71
2023/06/29 04:11:55;;;;;;;0.20;0.20;;;;;;;;;;5070433;28;20170;-73
2023/06/29 04:14:20;;;;;;;0.20;0.20;;;;;;;;;;5087493;28;20032;-71
2023/06/29 04:16:45;;;;;;;0.20;0.20;;;;;;;;;;5070594;28;20072;-71
2023/06/29 04:19:11;;;;;;;0.30;0.30;;;;;;;;;;5089030;28;20032;-70
2023/06/29 04:21:36;;;;;;;0.20;0.20;;;;;;;;;;5087316;28;20111;-69
2023/06/29 04:24:02;;;;;;;0.30;0.30;;;;;;;;;;5087186;28;20036;-70
2023/06/29 04:26:27;;;;;;;0.30;0.30;;;;;;;;;;5088723;28;20024;-70
2023/06/29 04:28:59;;;;;;;0.30;0.30;;;;;;;;;;5070433;28;20047;-70
2023/06/29 04:31:24;;;;;;;0.20;0.20;;;;;;;;;;5088800;28;20067;-70
2023/06/29 04:33:50;;;;;;;0.20;0.20;;;;;;;;;;5088895;28;20075;-70
2023/06/29 04:36:17;;;;;;;0.20;0.20;;;;;;;;;;5086920;28;20036;-70
2023/06/29 04:38:42;;;;;;;0.22;0.22;;;;;;;;;;5070715;28;20062;-70
2023/06/29 04:41:09;;;;;;;0.25;0.25;;;;;;;;;;5088679;28;20459;-70
2023/06/29 04:43:36;;;;;;;0.20;0.20;;;;;;;;;;5087132;28;20028;-70
2023/06/29 04:46:02;;;;;;;0.20;0.20;;;;;;;;;;5086816;28;20028;-70
2023/06/29 04:48:37;;;;;;;0.20;0.20;;;;;;;;;;5073606;28;20502;-71
2023/06/29 04:51:04;;;;;;;0.40;0.40;;;;;;;;;;5091114;28;20043;-70
2023/06/29 04:53:31;;;;;;;0.32;0.32;;;;;;;;;;5091768;28;20036;-70
2023/06/29 04:55:57;;;;;;;0.20;0.20;;;;;;;;;;5092089;28;20031;-70
2023/06/29 04:58:23;;;;;;;0.20;0.20;;;;;;;;;;5090506;28;20026;-70
2023/06/29 05:00:48;;;;;;;0.20;0.20;;;;;;;;;;5090405;28;20028;-74
2023/06/29 05:03:14;;;;;;;0.85;0.85;;;;;;;;;;5091773;28;20046;-73
2023/06/29 05:05:39;;;;;;;0.20;0.20;;;;;;;;;;5091894;28;20028;-72
2023/06/29 05:08:06;;;;;;;0.32;0.32;;;;;;;;;;5090244;28;20059;-72
2023/06/29 05:10:31;;;;;;;0.52;0.50;;;;;;;;;;5090481;28;20360;-71
2023/06/29 05:12:56;;;;;;;0.20;0.20;;;;;;;;;;5071676;28;20057;-71
2023/06/29 05:15:22;;;;;;;0.20;0.20;;;;;;;;;;5071374;28;20096;-71
2023/06/29 05:17:47;;;;;;;0.20;0.20;;;;;;;;;;5091624;28;20032;-70
2023/06/29 05:20:13;;;;;;;0.20;0.20;;;;;;;;;;5090867;28;20254;-72
2023/06/29 05:22:39;;;;;;;0.30;0.30;;;;;;;;;;5091374;28;20122;-71
2023/06/29 05:25:05;;;;;;;0.30;0.30;;;;;;;;;;5073471;28;20107;-70
2023/06/29 05:27:30;;;;;;;0.30;0.30;;;;;;;;;;5091289;28;20052;-71
2023/06/29 05:29:55;;;;;;;0.20;0.20;;;;;;;;;;5089999;28;20020;-70
2023/06/29 05:32:21;;;;;;;0.30;0.30;;;;;;;;;;5089666;28;20028;-72
2023/06/29 05:34:46;;;;;;;0.25;0.25;;;;;;;;;;5070961;28;20040;-71
2023/06/29 05:37:11;;;;;;;0.20;0.20;;;;;;;;;;5071275;28;20084;-71
2023/06/29 05:39:37;;;;;;;0.20;0.20;;;;;;;;;;5090903;28;20032;-70
2023/06/29 05:42:02;;;;;;;0.20;0.20;;;;;;;;;;5086847;28;20036;-70
2023/06/29 05:44:28;;;;;;;0.30;0.30;;;;;;;;;;5085415;28;20027;-70
2023/06/29 05:46:53;;;;;;;0.28;0.28;;;;;;;;;;5088074;28;20032;-71
2023/06/29 05:49:18;;;;;;;0.20;0.20;;;;;;;;;;5091357;28;20032;-70
2023/06/29 05:51:44;;;;;;;0.28;0.28;;;;;;;;;;5087415;28;20449;-71
2023/06/29 05:54:10;;;;;;;0.30;0.30;;;;;;;;;;5075232;28;20109;-70
2023/06/29 05:56:35;;;;;;;0.50;0.50;;;;;;;;;;5068893;28;20387;-71
2023/06/29 05:59:02;;;;;;;0.30;0.30;;;;;;;;;;5070691;28;20059;-71
2023/06/29 06:01:27;;;;;;;0.30;0.30;;;;;;;;;;5077892;28;20028;-70
2023/06/29 06:03:54;;;;;;;0.30;0.30;;;;;;;;;;5089946;28;20429;-69
2023/06/29 06:06:20;;;;;;;0.38;0.38;;;;;;;;;;5090101;28;20039;-69
2023/06/29 06:08:45;;;;;;;0.30;0.30;;;;;;;;;;5090661;28;20024;-69
2023/06/29 06:11:10;;;;;;;0.20;0.20;;;;;;;;;;5090029;28;20024;-69
2023/06/29 06:13:36;;;;;;;0.30;0.30;;;;;;;;;;5090593;28;20067;-70
2023/06/29 06:16:01;;;;;;;0.30;0.30;;;;;;;;;;5091036;28;20376;-68
2023/06/29 06:18:27;;;;;;;4.80;2.05;;;;;;;;;;5090088;28;20044;-71
2023/06/29 06:20:53;;;;;;;0.30;0.30;;;;;;;;;;5090639;28;20024;-71
2023/06/29 06:23:19;;;;;;;0.40;0.40;;;;;;;;;;5089130;28;20066;-69
2023/06/29 06:25:45;;;;;;;0.40;0.40;;;;;;;;;;5089852;28;20028;-69
2023/06/29 06:28:10;;;;;;;0.30;0.30;;;;;;;;;;5090271;28;20035;-70
2023/06/29 06:30:36;;;;;;;0.35;0.35;;;;;;;;;;5090266;28;20028;-70
2023/06/29 06:33:01;;;;;;;0.30;0.30;;;;;;;;;;5090469;28;20047;-69
2023/06/29 06:35:31;;;;;;;0.30;0.30;;;;;;;;;;5090478;28;20138;-70
2023/06/29 06:37:57;;;;;;;0.70;0.70;;;;;;;;;;5086633;28;20027;-79
2023/06/29 06:40:22;;;;;;;0.38;0.38;;;;;;;;;;5078026;28;20032;-72
2023/06/29 06:42:48;;;;;;;0.30;0.30;;;;;;;;;;5077446;28;20044;-71
2023/06/29 06:45:16;;;;;;;0.43;0.43;;;;;;;;;;5076301;28;20032;-77
2023/06/29 06:47:41;;;;;;;2.85;1.30;;;;;;;;;;5088310;28;20036;-74
2023/06/29 06:50:07;;;;;;;0.65;0.65;;;;;;;;;;5090126;28;20024;-75
2023/06/29 06:52:32;;;;;;;0.70;0.70;;;;;;;;;;5061729;28;20036;-72
2023/06/29 06:54:58;;;;;;;0.30;0.30;;;;;;;;;;5072072;28;20490;-73
2023/06/29 06:57:24;;;;;;;0.40;0.40;;;;;;;;;;5090077;28;20032;-72
2023/06/29 06:59:50;;;;;;;0.93;0.93;;;;;;;;;;5090075;28;20043;-72
2023/06/29 07:02:15;;;;;;;1.60;1.50;;;;;;;;;;5088720;28;20024;-73
2023/06/29 07:04:40;;;;;;;0.40;0.40;;;;;;;;;;5089783;28;20422;-72
2023/06/29 07:07:06;;;;;;;0.40;0.40;;;;;;;;;;5089826;28;20032;-74
2023/06/29 07:09:32;;;;;;;0.88;0.88;;;;;;;;;;5089142;28;20028;-73
2023/06/29 07:11:58;;;;;;;0.70;0.70;;;;;;;;;;5089272;28;20107;-72
2023/06/29 07:14:24;;;;;;;0.40;0.40;;;;;;;;;;5088969;28;20036;-75
2023/06/29 07:16:49;;;;;;;0.75;0.75;;;;;;;;;;5089497;28;20042;-74
2023/06/29 07:19:15;;;;;;;5.20;2.15;;;;;;;;;;5089627;28;20388;-73
2023/06/29 07:21:41;;;;;;;0.40;0.40;;;;;;;;;;5090136;28;20089;-73
2023/06/29 07:24:07;;;;;;;0.30;0.30;;;;;;;;;;5089934;28;20035;-72
2023/06/29 07:26:33;;;;;;;0.30;0.30;;;;;;;;;;5085064;28;20024;-73
2023/06/29 07:28:58;;;;;;;0.40;0.40;;;;;;;;;;5088366;28;20092;-73
2023/06/29 07:31:27;;;;;;;0.30;0.30;;;;;;;;;;5087764;28;20071;-73
2023/06/29 07:33:54;;;;;;;0.30;0.30;;;;;;;;;;5088665;28;20047;-73
2023/06/29 07:36:23;;;;;;;0.35;0.35;;;;;;;;;;5089351;28;20115;-73
2023/06/29 07:38:48;;;;;;;0.52;0.52;;;;;;;;;;5071191;28;20451;-73
2023/06/29 07:41:14;;;;;;;0.90;0.82;;;;;;;;;;5088868;28;20028;-75
2023/06/29 07:43:40;;;;;;;0.40;0.40;;;;;;;;;;5088363;28;20112;-78
2023/06/29 07:46:06;;;;;;;0.40;0.40;;;;;;;;;;5088727;28;20065;-74
2023/06/29 07:48:31;;;;;;;1.17;0.85;;;;;;;;;;5089244;28;20458;-75
2023/06/29 07:50:57;;;;;;;0.63;0.60;;;;;;;;;;5088511;28;20032;-73
2023/06/29 07:53:22;;;;;;;0.77;0.77;;;;;;;;;;5088950;28;20036;-73
2023/06/29 07:55:47;;;;;;;0.52;0.52;;;;;;;;;;5088817;28;20055;-73
2023/06/29 07:58:13;;;;;;;0.45;0.45;;;;;;;;;;5089087;28;20035;-73
2023/06/29 08:00:38;;;;;;;0.60;0.60;;;;;;;;;;5086767;28;20028;-72
2023/06/29 08:03:04;;;;;;;0.50;0.50;;;;;;;;;;5088996;28;20032;-73
2023/06/29 08:05:30;;;;;;;0.40;0.40;;;;;;;;;;5094185;28;20060;-76
2023/06/29 08:07:55;;;;;;;1.48;1.38;;;;;;;;;;5097551;28;20490;-72
2023/06/29 08:10:20;;;;;;;0.50;0.50;;;;;;;;;;5088254;28;20030;-79
2023/06/29 08:12:46;;;;;;;0.88;0.88;;;;;;;;;;5071665;28;20036;-74
2023/06/29 08:15:12;;;;;;;0.40;0.40;;;;;;;;;;5089765;28;20395;-74
2023/06/29 08:17:37;;;;;;;0.40;0.40;;;;;;;;;;5088814;28;20024;-73
2023/06/29 08:20:05;;;;;;;0.45;0.45;;;;;;;;;;5088588;28;20028;-73
2023/06/29 08:22:31;;;;;;;0.77;0.73;;;;;;;;;;5086864;28;20059;-73
2023/06/29 08:24:56;;;;;;;0.43;0.43;;;;;;;;;;5088512;28;20064;-75
2023/06/29 08:27:22;;;;;;;0.90;0.60;;;;;;;;;;5088773;28;20036;-74
2023/06/29 08:29:47;;;;;;;0.40;0.40;;;;;;;;;;5088181;28;20085;-73
2023/06/29 08:32:13;;;;;;;1.40;1.00;;;;;;;;;;5070105;28;20034;-74
2023/06/29 08:34:38;;;;;;;0.70;0.70;;;;;;;;;;5087212;28;20036;-74
2023/06/29 08:37:03;;;;;;;1.13;1.02;;;;;;;;;;5069863;28;20028;-74
2023/06/29 08:39:30;;;;;;;0.25;0.25;;;;;;;;;;5088565;28;20028;-74
2023/06/29 08:41:55;;;;;;;0.50;0.50;;;;;;;;;;5088279;28;20039;-77
2023/06/29 08:44:22;;;;;;;0.50;0.50;;;;;;;;;;5088269;28;20020;-74
2023/06/29 08:46:48;;;;;;;0.30;0.30;;;;;;;;;;5069878;28;20110;-74
2023/06/29 08:49:14;;;;;;;0.30;0.30;;;;;;;;;;5088306;28;20551;-74
2023/06/29 08:51:43;;;;;;;0.63;0.63;;;;;;;;;;5069004;28;20073;-74
2023/06/29 08:54:09;;;;;;;0.50;0.40;;;;;;;;;;5088180;28;20043;-74
2023/06/29 08:56:35;;;;;;;0.40;0.40;;;;;;;;;;5087921;28;20043;-74
2023/06/29 08:59:00;;;;;;;0.50;0.50;;;;;;;;;;5088418;28;20044;-74
2023/06/29 09:01:26;;;;;;;0.70;0.70;;;;;;;;;;5088031;28;20024;-73
2023/06/29 09:03:51;;;;;;;0.60;0.60;;;;;;;;;;5086361;28;20028;-73
2023/06/29 09:06:17;;;;;;;0.40;0.40;;;;;;;;;;5086703;28;20048;-74
2023/06/29 09:08:43;;;;;;;0.30;0.30;;;;;;;;;;5084888;28;20028;-75
2023/06/29 09:11:08;;;;;;;0.40;0.40;;;;;;;;;;5084523;28;20101;-74
2023/06/29 09:13:34;;;;;;;0.93;0.93;;;;;;;;;;5079247;28;20081;-77
2023/06/29 09:16:00;;;;;;;0.40;0.40;;;;;;;;;;5068944;28;20020;-75
2023/06/29 09:18:26;;;;;;;1.13;1.00;;;;;;;;;;5065592;28;20059;-76
2023/06/29 09:20:55;;;;;;;0.50;0.50;;;;;;;;;;5065940;28;20409;-75
2023/06/29 09:23:21;;;;;;;0.50;0.50;;;;;;;;;;5067332;28;20115;-73
2023/06/29 09:25:48;;;;;;;0.50;0.50;;;;;;;;;;5067940;28;20124;-73
2023/06/29 09:28:13;;;;;;;0.40;0.40;;;;;;;;;;5067657;28;20048;-72
2023/06/29 09:30:39;;;;;;;0.55;0.55;;;;;;;;;;5067469;28;20024;-73
2023/06/29 09:33:09;;;;;;;0.60;0.60;;;;;;;;;;5069965;28;20028;-72
2023/06/29 09:35:36;;;;;;;1.30;1.20;;;;;;;;;;5071692;28;20476;-74
2023/06/29 09:38:02;;;;;;;1.25;0.82;;;;;;;;;;5075014;28;20031;-74
2023/06/29 09:40:28;;;;;;;1.65;1.30;;;;;;;;;;5090624;28;20032;-74
2023/06/29 09:42:53;;;;;;;5.13;1.50;;;;;;;;;;5090958;28;20028;-74
2023/06/29 09:45:19;;;;;;;1.67;0.93;;;;;;;;;;5091273;28;20024;-75
2023/06/29 09:47:48;;;;;;;9.98;2.22;;;;;;;;;;5091038;28;20085;-75
2023/06/29 09:50:18;;;;;;;0.40;0.40;;;;;;;;;;5081262;28;20024;-77
2023/06/29 09:52:47;;;;;;;2.25;1.42;;;;;;;;;;5080893;28;20032;-75
2023/06/29 09:55:12;;;;;;;;;;;;;;;;;;5080138;28;20380;-76
2023/06/29 09:57:39;;;;;;;0.50;0.50;;;;;;;;;;5081685;28;19926;-74
2023/06/29 10:00:09;;;;;;;0.70;0.70;;;;;;;;;;5080689;28;20344;-73
2023/06/29 10:02:35;;;;;;;1.38;1.10;;;;;;;;;;5079815;28;20173;-74
2023/06/29 10:05:00;;;;;;;0.60;0.60;;;;;;;;;;5081267;28;20111;-75
2023/06/29 10:07:26;;;;;;;1.88;1.08;;;;;;;;;;5087266;28;20028;-74
2023/06/29 10:09:53;;;;;;;2.92;2.72;;;;;;;;;;5084412;28;20430;-76
2023/06/29 10:12:21;;;;;;;1.30;1.20;;;;;;;;;;5077590;28;20042;-73
2023/06/29 10:14:48;;;;;;;2.28;2.00;;;;;;;;;;5090708;28;20039;-73
2023/06/29 10:17:16;;;;;;;1.63;1.10;;;;;;;;;;5090687;28;20059;-74
2023/06/29 10:19:42;;;;;;;4.47;2.53;;;;;;;;;;5090409;28;20071;-73
2023/06/29 10:22:10;;;;;;;1.23;0.70;;;;;;;;;;5087625;28;20043;-73
2023/06/29 10:24:58;;;;;;;2.15;1.88;;;;;;;;;;5084065;28;20056;-74
2023/06/29 10:27:26;;;;;;;2.63;1.88;;;;;;;;;;5057409;28;20044;-72
2023/06/29 10:29:51;;;;;;;1.88;1.05;;;;;;;;;;5086728;28;20024;-72
2023/06/29 10:32:30;;;;;;;2.28;1.58;;;;;;;;;;5088748;28;20058;-73
2023/06/29 10:35:01;;;;;;;0.50;0.50;;;;;;;;;;5088501;28;20033;-73
2023/06/29 10:37:56;;;;;;;0.70;0.70;;;;;;;;;;5078835;28;20361;-73
2023/06/29 10:40:24;;;;;;;0.60;0.60;;;;;;;;;;5056812;28;20040;-73
2023/06/29 10:42:53;;;;;;;0.88;0.88;;;;;;;;;;5069374;28;20040;-73
2023/06/29 10:45:18;;;;;;;0.57;0.57;;;;;;;;;;5069314;28;20051;-77
2023/06/29 10:47:45;;;;;;;0.95;0.93;;;;;;;;;;5070055;28;20028;-74
2023/06/29 10:50:10;;;;;;;0.50;0.50;;;;;;;;;;5070174;28;20036;-73
2023/06/29 10:52:37;;;;;;;1.38;0.93;;;;;;;;;;5069788;28;20886;-72
2023/06/29 10:55:15;;;;;;;0.70;0.70;;;;;;;;;;5069928;28;20045;-72
2023/06/29 10:57:44;;;;;;;3.60;2.20;;;;;;;;;;5070180;28;20358;-73
2023/06/29 11:00:10;;;;;;;1.95;1.48;;;;;;;;;;5070019;28;20270;-73
2023/06/29 11:02:36;;;;;;;0.50;0.50;;;;;;;;;;5069110;28;20422;-76
2023/06/29 11:05:01;;;;;;;1.10;0.98;;;;;;;;;;5069526;28;20036;-73
2023/06/29 11:07:27;;;;;;;0.55;0.55;;;;;;;;;;5069556;28;20108;-73
2023/06/29 11:10:00;;;;;;;3.30;2.13;;;;;;;;;;5051323;28;20115;-76
2023/06/29 11:12:25;;;;;;;2.22;0.70;;;;;;;;;;5069152;28;20032;-76
2023/06/29 11:14:51;;;;;;;1.33;0.95;;;;;;;;;;5077704;28;20048;-73
2023/06/29 11:17:17;;;;;;;2.75;0.77;;;;;;;;;;5085368;28;20467;-78
2023/06/29 11:19:45;;;;;;;3.03;1.40;;;;;;;;;;5093471;28;20032;-74
2023/06/29 11:22:11;;;;;;;0.60;0.60;;;;;;;;;;5087465;28;20032;-75
2023/06/29 11:24:36;;;;;;;1.45;0.75;;;;;;;;;;5087252;28;20476;-74
2023/06/29 11:27:02;;;;;;;0.40;0.40;;;;;;;;;;5087539;28;20028;-75
2023/06/29 11:29:29;;;;;;;0.68;0.68;;;;;;;;;;5087440;28;20036;-74
2023/06/29 11:31:55;;;;;;;0.77;0.65;;;;;;;;;;5087365;28;20031;-74
2023/06/29 11:34:20;;;;;;;2.47;1.85;;;;;;;;;;5087120;28;20040;-74
2023/06/29 11:36:47;;;;;;;1.25;1.17;;;;;;;;;;5093513;28;20035;-74
2023/06/29 11:39:12;;;;;;;1.85;1.65;;;;;;;;;;5090013;28;20027;-75
2023/06/29 11:41:38;;;;;;;0.80;0.80;;;;;;;;;;5080181;28;20391;-75
2023/06/29 11:44:04;;;;;;;1.50;1.25;;;;;;;;;;5076527;28;20016;-74
2023/06/29 11:46:33;;;;;;;0.68;0.68;;;;;;;;;;5077812;28;20036;-74
2023/06/29 11:48:59;;;;;;;3.25;2.08;;;;;;;;;;5076305;28;20028;-75
2023/06/29 11:51:28;;;;;;;1.45;1.20;;;;;;;;;;5078689;28;20035;-74
2023/06/29 11:53:54;;;;;;;0.50;0.50;;;;;;;;;;5079577;28;20483;-73
2023/06/29 11:56:23;;;;;;;1.23;1.17;;;;;;;;;;5077293;28;20024;-73
2023/06/29 11:58:49;;;;;;;0.65;0.65;;;;;;;;;;5077757;28;20035;-73
2023/06/29 12:01:15;;;;;;;0.65;0.65;;;;;;;;;;5079234;28;20379;-74
2023/06/29 12:03:40;;;;;;;0.80;0.80;;;;;;;;;;5085714;28;20657;-72
2023/06/29 12:06:05;;;;;;;1.85;1.20;;;;;;;;;;5090569;28;20078;-76
2023/06/29 12:08:40;;;;;;;4.07;2.65;;;;;;;;;;5088698;28;20036;-74
2023/06/29 12:11:06;;;;;;;1.63;1.33;;;;;;;;;;5088789;28;20036;-73
2023/06/29 12:13:31;;;;;;;1.27;1.17;;;;;;;;;;5088700;28;20039;-73
2023/06/29 12:16:02;;;;;;;2.60;1.55;;;;;;;;;;5088643;28;20065;-74
2023/06/29 12:18:28;;;;;;;1.70;1.60;;;;;;;;;;5087478;28;20543;-76
2023/06/29 12:20:53;;;;;;;1.83;0.98;;;;;;;;;;5086572;28;20035;-74
2023/06/29 12:23:21;;;;;;;0.50;0.50;;;;;;;;;;5086731;28;20038;-75
2023/06/29 12:25:47;;;;;;;1.23;1.08;;;;;;;;;;5071095;28;20040;-75
2023/06/29 12:28:13;;;;;;;1.65;0.95;;;;;;;;;;5088323;28;20020;-74
2023/06/29 12:30:40;;;;;;;1.10;1.05;;;;;;;;;;5087604;28;20036;-74
2023/06/29 12:33:06;;;;;;;0.68;0.68;;;;;;;;;;5088912;28;20440;-73
2023/06/29 12:35:31;;;;;;;2.90;2.15;;;;;;;;;;5087614;28;20051;-73
2023/06/29 12:37:56;;;;;;;1.40;1.27;;;;;;;;;;5088733;28;20032;-74
2023/06/29 12:40:22;;;;;;;0.75;0.75;;;;;;;;;;5088230;28;20039;-72
2023/06/29 12:42:47;;;;;;;1.52;1.10;;;;;;;;;;5088611;28;20387;-72
2023/06/29 12:45:13;;;;;;;0.50;0.50;;;;;;;;;;5088640;28;20024;-71
2023/06/29 12:47:39;;;;;;;1.05;1.00;;;;;;;;;;5070484;28;20055;-76
2023/06/29 12:50:05;;;;;;;0.90;0.88;;;;;;;;;;5088629;28;20387;-73
2023/06/29 12:52:30;;;;;;;0.70;0.70;;;;;;;;;;5088295;28;20039;-73
2023/06/29 12:54:56;;;;;;;1.38;1.20;;;;;;;;;;5070324;28;20075;-73
2023/06/29 12:57:28;;;;;;;0.75;0.75;;;;;;;;;;5088185;28;20157;-73
2023/06/29 12:59:55;;;;;;;1.05;0.93;;;;;;;;;;5088130;28;20040;-74
2023/06/29 13:02:20;;;;;;;2.08;1.52;;;;;;;;;;5088192;28;20084;-73
2023/06/29 13:04:46;;;;;;;0.60;0.60;;;;;;;;;;5088100;28;20328;-73
2023/06/29 13:07:17;;;;;;;1.50;1.27;;;;;;;;;;5089421;28;20031;-72
2023/06/29 13:09:43;;;;;;;3.10;1.10;;;;;;;;;;5091680;28;20044;-75
2023/06/29 13:12:08;;;;;;;4.05;1.35;;;;;;;;;;5091611;28;20153;-72
2023/06/29 13:14:34;;;;;;;1.60;0.95;;;;;;;;;;5090985;28;20126;-73
2023/06/29 13:17:00;;;;;;;1.50;1.17;;;;;;;;;;5090793;28;20028;-75
2023/06/29 13:19:26;;;;;;;0.60;0.60;;;;;;;;;;5082539;28;20020;-72
2023/06/29 13:21:52;;;;;;;1.13;1.02;;;;;;;;;;5087150;28;20502;-73
2023/06/29 13:24:18;;;;;;;1.70;1.42;;;;;;;;;;5084347;28;20069;-73
2023/06/29 13:26:43;;;;;;;1.13;1.02;;;;;;;;;;5080422;28;20040;-73
2023/06/29 13:29:09;;;;;;;3.95;1.88;;;;;;;;;;5082050;28;20034;-76
2023/06/29 13:31:34;;;;;;;0.85;0.85;;;;;;;;;;5073968;28;20028;-76
2023/06/29 13:34:00;;;;;;;2.90;2.25;;;;;;;;;;5073761;28;20039;-73
2023/06/29 13:36:25;;;;;;;1.85;1.35;;;;;;;;;;5087884;28;20060;-73
2023/06/29 13:38:50;;;;;;;1.35;1.25;;;;;;;;;;5086906;28;20024;-73
2023/06/29 13:41:18;;;;;;;0.50;0.50;;;;;;;;;;5091514;28;20036;-74
2023/06/29 13:43:43;;;;;;;0.45;0.45;;;;;;;;;;5088534;28;20103;-72
2023/06/29 13:46:09;;;;;;;1.05;1.05;;;;;;;;;;5086549;28;20111;-72
2023/06/29 13:48:34;;;;;;;1.85;1.50;;;;;;;;;;5086572;28;20032;-73
2023/06/29 13:51:00;;;;;;;1.05;0.93;;;;;;;;;;5091146;28;20036;-73
2023/06/29 13:53:25;;;;;;;2.67;1.30;;;;;;;;;;5090689;28;20067;-72
2023/06/29 13:55:51;;;;;;;1.98;1.60;;;;;;;;;;5091086;28;20031;-73
2023/06/29 13:58:16;;;;;;;3.35;1.38;;;;;;;;;;5082142;28;20153;-72
2023/06/29 14:00:42;;;;;;;0.85;0.65;;;;;;;;;;5084188;28;20471;-73
2023/06/29 14:03:07;;;;;;;2.80;1.75;;;;;;;;;;5090864;28;20043;-73
2023/06/29 14:05:33;;;;;;;0.90;0.90;;;;;;;;;;5089678;28;20046;-72
2023/06/29 14:07:58;;;;;;;1.58;1.48;;;;;;;;;;5084516;28;20024;-73
2023/06/29 14:10:24;;;;;;;1.65;1.05;;;;;;;;;;5086256;28;20175;-73
2023/06/29 14:12:49;;;;;;;2.05;1.17;;;;;;;;;;5084897;28;20024;-73
2023/06/29 14:15:15;;;;;;;1.00;0.93;;;;;;;;;;5088298;28;20804;-72
2023/06/29 14:17:40;;;;;;;1.23;0.82;;;;;;;;;;5090363;28;20078;-73
2023/06/29 14:20:06;;;;;;;2.28;1.73;;;;;;;;;;5089347;28;20147;-72
2023/06/29 14:22:32;;;;;;;2.25;1.20;;;;;;;;;;5090450;28;20027;-73
2023/06/29 14:24:58;;;;;;;1.58;1.38;;;;;;;;;;5089231;28;20028;-73
2023/06/29 14:27:23;;;;;;;3.08;2.05;;;;;;;;;;5090603;28;20032;-74
2023/06/29 14:29:49;;;;;;;3.88;0.80;;;;;;;;;;5090480;28;20549;-72
2023/06/29 14:32:14;;;;;;;1.33;0.60;;;;;;;;;;5090352;28;20052;-72
2023/06/29 14:34:40;;;;;;;1.02;0.98;;;;;;;;;;5090557;28;20044;-70
2023/06/29 14:37:05;;;;;;;1.85;1.35;;;;;;;;;;5090413;28;20036;-72